Airport View

Enter ICAO identifier to see the current METAR for that AWOS.

KFNL for example

KPIT 152351Z 18004KT 10SM BKN160 OVC230 17/11 A3006

16 Sep 2014 00:49

Phone: 412-472-0145

Other Area AWOS: KAGC - KBVI - KBTP - KAFJ

TAF KPIT 152320Z 1600/1706 20006KT P6SM OVC100 FM160500 25003KT 6SM -RA OVC050 FM160800 34004KT P6SM BKN015 FM161600 33005KT P6SM BKN050 FM162200 32007KT P6SM SKC